Time;durP1;ratioP1;P1;durP2;ratioP2;P2;SDS_P1;SDS_P2;PMS_P1;PMS_P2;Temp;Humidity;BMP_temperature;BMP_pressure;BME280_temperature;BME280_humidity;BME280_pressure;Samples;Min_cycle;Max_cycle;Signal;HPM_P1;HPM_P2
2022/05/08 00:02:13;;;;;;;3.65;2.10;;;;;;;;;;4939508;29;20039;-80
2022/05/08 00:04:38;;;;;;;2.40;1.90;;;;;;;;;;4936354;29;20234;-80
2022/05/08 00:07:04;;;;;;;2.85;2.10;;;;;;;;;;4921169;29;20035;-80
2022/05/08 00:09:30;;;;;;;3.20;2.35;;;;;;;;;;4921119;29;20024;-80
2022/05/08 00:11:55;;;;;;;3.10;2.20;;;;;;;;;;4937369;29;20047;-80
2022/05/08 00:14:21;;;;;;;3.17;2.20;;;;;;;;;;4952949;29;20055;-80
2022/05/08 00:16:46;;;;;;;2.65;2.10;;;;;;;;;;4936804;29;20044;-80
2022/05/08 00:19:11;;;;;;;4.47;2.08;;;;;;;;;;4953530;28;20035;-80
2022/05/08 00:21:39;;;;;;;3.63;2.15;;;;;;;;;;4953257;29;20522;-80
2022/05/08 00:24:04;;;;;;;6.35;2.60;;;;;;;;;;4937888;29;20103;-80
2022/05/08 00:26:30;;;;;;;4.63;2.22;;;;;;;;;;4938879;29;20115;-81
2022/05/08 00:28:55;;;;;;;4.07;2.00;;;;;;;;;;4938820;29;20114;-80
2022/05/08 00:31:21;;;;;;;6.68;2.90;;;;;;;;;;4952423;28;20086;-80
2022/05/08 00:33:46;;;;;;;4.15;2.00;;;;;;;;;;4935706;29;20034;-79
2022/05/08 00:36:12;;;;;;;7.53;2.30;;;;;;;;;;4936957;29;20108;-79
2022/05/08 00:38:37;;;;;;;2.92;1.98;;;;;;;;;;4935490;29;20031;-79
2022/05/08 00:41:02;;;;;;;5.70;2.17;;;;;;;;;;4919589;29;20118;-79
2022/05/08 00:43:33;;;;;;;3.38;2.00;;;;;;;;;;4935537;29;20031;-79
2022/05/08 00:46:04;;;;;;;4.22;2.42;;;;;;;;;;4935334;29;20024;-79
2022/05/08 00:48:30;;;;;;;6.00;2.10;;;;;;;;;;4935287;29;20415;-80
2022/05/08 00:50:56;;;;;;;6.55;2.72;;;;;;;;;;4903756;29;20028;-79
2022/05/08 00:53:22;;;;;;;6.03;2.10;;;;;;;;;;4935474;29;20047;-79
2022/05/08 00:55:48;;;;;;;4.82;2.15;;;;;;;;;;4935269;29;20028;-79
2022/05/08 00:58:17;;;;;;;5.85;2.35;;;;;;;;;;4936734;29;20486;-79
2022/05/08 01:00:43;;;;;;;3.47;1.90;;;;;;;;;;4919033;29;20131;-79
2022/05/08 01:03:08;;;;;;;5.15;2.10;;;;;;;;;;4950986;29;20051;-80
2022/05/08 01:05:37;;;;;;;5.20;2.10;;;;;;;;;;4935537;29;20500;-82
2022/05/08 01:08:03;;;;;;;4.22;2.10;;;;;;;;;;4951532;29;20146;-81
2022/05/08 01:10:28;;;;;;;7.47;2.38;;;;;;;;;;4903985;29;20083;-81
2022/05/08 01:12:54;;;;;;;4.22;2.22;;;;;;;;;;4935716;29;20032;-80
2022/05/08 01:15:20;;;;;;;4.40;1.88;;;;;;;;;;4936602;29;20094;-80
2022/05/08 01:17:47;;;;;;;3.63;1.85;;;;;;;;;;4935918;29;20044;-81
2022/05/08 01:20:13;;;;;;;5.13;2.33;;;;;;;;;;4935531;29;20050;-80
2022/05/08 01:22:38;;;;;;;5.20;2.17;;;;;;;;;;4921522;29;20464;-81
2022/05/08 01:25:04;;;;;;;4.88;2.28;;;;;;;;;;4940229;29;20039;-81
2022/05/08 01:27:30;;;;;;;7.80;2.30;;;;;;;;;;4941302;29;20042;-81
2022/05/08 01:29:56;;;;;;;3.20;2.30;;;;;;;;;;4934787;29;20059;-80
2022/05/08 01:32:21;;;;;;;9.05;2.30;;;;;;;;;;4934546;29;20020;-80
2022/05/08 01:34:46;;;;;;;7.13;2.50;;;;;;;;;;4935036;29;20028;-80
2022/05/08 01:37:12;;;;;;;5.45;2.13;;;;;;;;;;4934297;29;20028;-80
2022/05/08 01:39:38;;;;;;;6.18;2.22;;;;;;;;;;4935863;29;20032;-80
2022/05/08 01:42:06;;;;;;;6.60;2.10;;;;;;;;;;4918823;29;20159;-80
2022/05/08 01:44:32;;;;;;;5.35;1.85;;;;;;;;;;4935040;29;20055;-81
2022/05/08 01:49:41;;;;;;;;;;;;;;;;;;4935057;29;20030;-80
2022/05/08 01:52:07;;;;;;;6.97;2.03;;;;;;;;;;4951039;29;19914;-81
2022/05/08 01:54:33;;;;;;;3.95;1.95;;;;;;;;;;4935699;29;20167;-80
2022/05/08 01:56:58;;;;;;;5.93;2.10;;;;;;;;;;4934827;29;20402;-80
2022/05/08 01:59:24;;;;;;;4.93;2.35;;;;;;;;;;4934326;29;20040;-79
2022/05/08 02:01:49;;;;;;;4.72;2.10;;;;;;;;;;4918293;29;20035;-79
2022/05/08 02:04:15;;;;;;;6.20;2.22;;;;;;;;;;4935446;29;20055;-79
2022/05/08 02:06:44;;;;;;;6.97;2.03;;;;;;;;;;4934302;29;20143;-80
2022/05/08 02:09:10;;;;;;;6.10;2.10;;;;;;;;;;4934242;29;20051;-80
2022/05/08 02:11:36;;;;;;;4.75;2.63;;;;;;;;;;4934349;29;20097;-79
2022/05/08 02:14:02;;;;;;;5.85;2.08;;;;;;;;;;4918262;29;20475;-79
2022/05/08 02:16:29;;;;;;;7.03;2.80;;;;;;;;;;4934117;29;20109;-79
2022/05/08 02:18:54;;;;;;;6.85;2.35;;;;;;;;;;4935665;29;20044;-79
2022/05/08 02:21:20;;;;;;;6.75;2.10;;;;;;;;;;4933783;29;20051;-80
2022/05/08 02:23:45;;;;;;;7.22;1.88;;;;;;;;;;4937463;29;20031;-81
2022/05/08 02:26:10;;;;;;;7.03;2.33;;;;;;;;;;4938702;29;20036;-81
2022/05/08 02:28:36;;;;;;;7.72;2.58;;;;;;;;;;4955358;29;20038;-81
2022/05/08 02:31:01;;;;;;;6.78;1.95;;;;;;;;;;4939030;29;20349;-81
2022/05/08 02:33:26;;;;;;;6.43;2.17;;;;;;;;;;4922995;29;20047;-80
2022/05/08 02:35:52;;;;;;;7.70;2.00;;;;;;;;;;4940905;29;20383;-80
2022/05/08 02:38:17;;;;;;;6.63;2.13;;;;;;;;;;4941988;29;20031;-81
2022/05/08 02:40:43;;;;;;;6.53;1.98;;;;;;;;;;4928330;29;20035;-81
2022/05/08 02:43:08;;;;;;;3.80;1.70;;;;;;;;;;4947164;29;20139;-80
2022/05/08 02:45:34;;;;;;;7.32;2.35;;;;;;;;;;4943278;29;20027;-80
2022/05/08 02:47:59;;;;;;;6.50;1.90;;;;;;;;;;4941051;29;20403;-81
2022/05/08 02:50:25;;;;;;;7.20;2.10;;;;;;;;;;4940200;29;20344;-80
2022/05/08 02:52:51;;;;;;;4.93;1.77;;;;;;;;;;4939686;29;20450;-80
2022/05/08 03:00:46;;;;;;;5.93;2.28;;;;;;;;;;4924590;29;20535;-79
2022/05/08 03:03:12;;;;;;;5.38;2.20;;;;;;;;;;4953403;29;20020;-80
2022/05/08 03:05:41;;;;;;;6.97;1.90;;;;;;;;;;4938524;29;20422;-80
2022/05/08 03:08:06;;;;;;;8.55;2.10;;;;;;;;;;4937422;29;20034;-79
2022/05/08 03:11:25;;;;;;;5.35;1.92;;;;;;;;;;4940327;29;20122;-80
2022/05/08 03:13:17;;;;;;;6.65;2.08;;;;;;;;;;4938416;29;20107;-79
2022/05/08 03:15:43;;;;;;;7.40;2.20;;;;;;;;;;4937364;29;20059;-79
2022/05/08 03:18:08;;;;;;;5.20;1.98;;;;;;;;;;4937631;29;20126;-79
2022/05/08 03:20:34;;;;;;;6.18;2.10;;;;;;;;;;4938748;29;20098;-79
2022/05/08 03:22:59;;;;;;;9.15;2.13;;;;;;;;;;4937927;29;20031;-80
2022/05/08 03:25:25;;;;;;;7.78;2.05;;;;;;;;;;4941056;29;20027;-80
2022/05/08 03:27:51;;;;;;;4.45;1.65;;;;;;;;;;4925893;29;20059;-81
2022/05/08 03:30:16;;;;;;;6.47;2.00;;;;;;;;;;4941486;29;20035;-80
2022/05/08 03:32:42;;;;;;;6.88;2.10;;;;;;;;;;4941887;29;20027;-80
2022/05/08 03:35:08;;;;;;;6.35;2.42;;;;;;;;;;4942017;29;20176;-80
2022/05/08 03:37:33;;;;;;;9.20;2.00;;;;;;;;;;4955544;28;20438;-80
2022/05/08 03:39:59;;;;;;;7.07;1.92;;;;;;;;;;4955170;28;20042;-79
2022/05/08 03:42:25;;;;;;;5.57;2.00;;;;;;;;;;4925398;29;20063;-81
2022/05/08 03:44:53;;;;;;;9.52;2.28;;;;;;;;;;4939059;29;20031;-79
2022/05/08 03:47:19;;;;;;;6.10;2.20;;;;;;;;;;4923353;29;20058;-80
2022/05/08 03:49:45;;;;;;;7.63;2.13;;;;;;;;;;4938100;29;20035;-81
2022/05/08 03:52:10;;;;;;;7.75;1.95;;;;;;;;;;4935466;29;20178;-81
2022/05/08 03:54:36;;;;;;;5.82;2.10;;;;;;;;;;4936831;29;20032;-79
2022/05/08 03:57:01;;;;;;;5.35;2.00;;;;;;;;;;4920644;29;20035;-79
2022/05/08 03:59:26;;;;;;;4.28;1.85;;;;;;;;;;4904903;29;20031;-79
2022/05/08 04:01:54;;;;;;;5.60;2.25;;;;;;;;;;4937725;29;20035;-80
2022/05/08 04:04:20;;;;;;;6.88;2.10;;;;;;;;;;4937659;29;20078;-80
2022/05/08 04:06:46;;;;;;;6.88;2.20;;;;;;;;;;4920924;29;20036;-81
2022/05/08 04:09:11;;;;;;;6.45;2.30;;;;;;;;;;4936375;29;20090;-79
2022/05/08 04:11:36;;;;;;;6.93;1.92;;;;;;;;;;4936913;29;20036;-80
2022/05/08 04:14:02;;;;;;;6.20;1.95;;;;;;;;;;4937992;29;20055;-82
2022/05/08 04:16:27;;;;;;;5.07;1.90;;;;;;;;;;4936614;29;20474;-79
2022/05/08 04:18:53;;;;;;;5.95;2.17;;;;;;;;;;4939121;29;20062;-80
2022/05/08 04:21:18;;;;;;;5.57;1.95;;;;;;;;;;4937976;29;20324;-81
2022/05/08 04:26:30;;;;;;;4.93;1.85;;;;;;;;;;4940806;29;20039;-81
2022/05/08 04:28:56;;;;;;;4.75;1.83;;;;;;;;;;4940315;29;20024;-81
2022/05/08 04:31:21;;;;;;;7.10;2.28;;;;;;;;;;4922872;29;20127;-81
2022/05/08 04:33:47;;;;;;;5.13;1.63;;;;;;;;;;4925062;29;20040;-80
2022/05/08 04:36:13;;;;;;;3.63;1.85;;;;;;;;;;4938969;29;20067;-82
2022/05/08 04:38:38;;;;;;;6.43;2.50;;;;;;;;;;4924293;29;20039;-82
2022/05/08 04:41:04;;;;;;;4.18;1.65;;;;;;;;;;4954961;29;20032;-81
2022/05/08 04:43:29;;;;;;;6.07;2.08;;;;;;;;;;4937814;29;20031;-81
2022/05/08 04:45:55;;;;;;;5.10;1.77;;;;;;;;;;4937119;29;20036;-81
2022/05/08 04:48:20;;;;;;;6.70;2.00;;;;;;;;;;4937773;29;20047;-81
2022/05/08 04:50:45;;;;;;;4.25;1.60;;;;;;;;;;4937369;29;20031;-81
2022/05/08 04:53:11;;;;;;;7.07;2.17;;;;;;;;;;4937224;29;20035;-81
2022/05/08 04:55:36;;;;;;;5.25;1.77;;;;;;;;;;4937089;29;20475;-80
2022/05/08 04:58:01;;;;;;;4.43;1.80;;;;;;;;;;4935456;29;20068;-80
2022/05/08 05:00:28;;;;;;;4.78;2.03;;;;;;;;;;4936547;29;20036;-80
2022/05/08 05:02:53;;;;;;;4.18;1.73;;;;;;;;;;4919428;29;20031;-80
2022/05/08 05:05:19;;;;;;;5.50;1.92;;;;;;;;;;4937759;29;20047;-80
2022/05/08 05:07:44;;;;;;;8.23;2.15;;;;;;;;;;4936482;29;20393;-80
2022/05/08 05:10:10;;;;;;;4.38;1.90;;;;;;;;;;4920496;29;20048;-80
2022/05/08 05:12:36;;;;;;;5.95;2.70;;;;;;;;;;4951978;29;20032;-80
2022/05/08 05:15:01;;;;;;;5.43;1.90;;;;;;;;;;4935736;29;20317;-80
2022/05/08 05:17:27;;;;;;;5.43;1.52;;;;;;;;;;4936406;29;20475;-79
2022/05/08 05:19:52;;;;;;;4.85;2.20;;;;;;;;;;4937291;29;20031;-79
2022/05/08 05:22:22;;;;;;;5.65;1.65;;;;;;;;;;4936791;29;20039;-79
2022/05/08 05:24:47;;;;;;;5.53;1.88;;;;;;;;;;4952702;29;20501;-80
2022/05/08 05:27:12;;;;;;;9.18;2.55;;;;;;;;;;4936673;29;20031;-80
2022/05/08 05:29:38;;;;;;;6.40;1.95;;;;;;;;;;4936379;29;20517;-80
2022/05/08 05:32:03;;;;;;;5.28;1.92;;;;;;;;;;4921335;29;20163;-81
2022/05/08 05:34:29;;;;;;;7.10;2.50;;;;;;;;;;4936255;29;20115;-78
2022/05/08 05:36:54;;;;;;;4.60;1.70;;;;;;;;;;4935776;29;20471;-80
2022/05/08 05:39:20;;;;;;;5.15;2.20;;;;;;;;;;4951570;28;20102;-78
2022/05/08 05:41:45;;;;;;;3.58;1.77;;;;;;;;;;4936381;29;20390;-80
2022/05/08 05:44:11;;;;;;;4.65;1.60;;;;;;;;;;4922260;29;20056;-81
2022/05/08 05:49:22;;;;;;;5.90;2.05;;;;;;;;;;4915171;29;20043;-79
2022/05/08 05:51:47;;;;;;;6.50;1.73;;;;;;;;;;4950268;29;20032;-79
2022/05/08 05:54:13;;;;;;;4.53;1.73;;;;;;;;;;4934323;29;20517;-78
2022/05/08 05:56:39;;;;;;;5.47;1.90;;;;;;;;;;4935116;29;20058;-78
2022/05/08 05:59:04;;;;;;;5.50;2.38;;;;;;;;;;4918070;29;20458;-78
2022/05/08 06:01:30;;;;;;;3.85;2.10;;;;;;;;;;4933627;29;20058;-78
2022/05/08 06:03:55;;;;;;;5.53;1.90;;;;;;;;;;4933897;29;20107;-78
2022/05/08 06:06:22;;;;;;;4.50;1.60;;;;;;;;;;4933459;29;20052;-79
2022/05/08 06:08:47;;;;;;;8.63;2.38;;;;;;;;;;4935123;29;20110;-78
2022/05/08 06:11:12;;;;;;;8.73;1.98;;;;;;;;;;4918000;29;20028;-78
2022/05/08 06:13:38;;;;;;;5.53;1.95;;;;;;;;;;4933786;29;20475;-78
2022/05/08 06:16:03;;;;;;;4.05;1.83;;;;;;;;;;4933066;29;20111;-80
2022/05/08 06:18:29;;;;;;;4.38;1.67;;;;;;;;;;4933551;29;20136;-80
2022/05/08 06:20:55;;;;;;;6.60;2.13;;;;;;;;;;4933754;29;20066;-78
2022/05/08 06:23:20;;;;;;;7.50;1.73;;;;;;;;;;4901857;29;20036;-78
2022/05/08 06:25:45;;;;;;;4.40;2.00;;;;;;;;;;4933612;29;20378;-78
2022/05/08 06:28:11;;;;;;;5.50;1.90;;;;;;;;;;4935091;29;20039;-78
2022/05/08 06:30:36;;;;;;;5.88;2.38;;;;;;;;;;4933453;29;20035;-79
2022/05/08 06:33:01;;;;;;;6.13;1.95;;;;;;;;;;4933828;29;20190;-79
2022/05/08 06:35:27;;;;;;;5.53;1.90;;;;;;;;;;4934030;29;20039;-78
2022/05/08 06:37:54;;;;;;;5.80;1.85;;;;;;;;;;4950218;28;20145;-79
2022/05/08 06:40:21;;;;;;;7.03;1.75;;;;;;;;;;4934290;29;20028;-79
2022/05/08 06:42:46;;;;;;;7.05;2.05;;;;;;;;;;4934357;29;20039;-79
2022/05/08 06:45:12;;;;;;;5.45;2.00;;;;;;;;;;4935678;29;20042;-79
2022/05/08 06:47:37;;;;;;;6.10;1.63;;;;;;;;;;4935727;29;20031;-80
2022/05/08 06:50:03;;;;;;;9.48;2.17;;;;;;;;;;4918868;29;20035;-79
2022/05/08 06:52:28;;;;;;;5.93;2.13;;;;;;;;;;4918032;29;20028;-79
2022/05/08 06:54:53;;;;;;;7.15;2.13;;;;;;;;;;4933662;29;20032;-79
2022/05/08 06:57:19;;;;;;;5.20;1.88;;;;;;;;;;4917570;29;20107;-79
2022/05/08 07:02:28;;;;;;;5.00;1.63;;;;;;;;;;4933877;29;20106;-77
2022/05/08 07:04:53;;;;;;;8.60;1.88;;;;;;;;;;4935319;29;20060;-79
2022/05/08 07:07:20;;;;;;;6.15;1.75;;;;;;;;;;4934919;29;20031;-78
2022/05/08 07:09:45;;;;;;;12.80;1.88;;;;;;;;;;4918224;29;20040;-77
2022/05/08 07:12:11;;;;;;;4.47;1.92;;;;;;;;;;4934021;29;20110;-78
2022/05/08 07:14:40;;;;;;;5.53;2.10;;;;;;;;;;4918669;29;20039;-78
2022/05/08 07:17:05;;;;;;;5.13;1.67;;;;;;;;;;4933948;29;20035;-79
2022/05/08 07:19:30;;;;;;;5.50;1.92;;;;;;;;;;4933513;29;20035;-79
2022/05/08 07:21:56;;;;;;;6.63;2.22;;;;;;;;;;4949510;29;20027;-78
2022/05/08 07:24:21;;;;;;;10.77;2.00;;;;;;;;;;4933910;29;20062;-78
2022/05/08 07:26:47;;;;;;;7.68;2.10;;;;;;;;;;4934486;29;20446;-82
2022/05/08 07:29:13;;;;;;;9.00;2.13;;;;;;;;;;4952236;29;20056;-79
2022/05/08 07:31:38;;;;;;;16.35;2.65;;;;;;;;;;4953287;29;20031;-79
2022/05/08 07:36:48;;;;;;;9.93;2.95;;;;;;;;;;4937616;29;20037;-78
2022/05/08 07:39:13;;;;;;;14.77;3.38;;;;;;;;;;4920196;29;20118;-81
2022/05/08 07:41:39;;;;;;;12.65;4.00;;;;;;;;;;4936196;29;20028;-78
2022/05/08 07:44:04;;;;;;;10.73;3.40;;;;;;;;;;4937520;29;20049;-77
2022/05/08 07:46:30;;;;;;;16.70;3.55;;;;;;;;;;4937374;29;20510;-78
2022/05/08 07:48:55;;;;;;;9.85;3.35;;;;;;;;;;4920197;29;20036;-78
2022/05/08 07:51:21;;;;;;;10.63;2.85;;;;;;;;;;4935958;29;20032;-78
2022/05/08 07:53:46;;;;;;;7.72;2.58;;;;;;;;;;4951502;29;20050;-77
2022/05/08 07:56:11;;;;;;;11.68;3.15;;;;;;;;;;4920244;29;20035;-78
2022/05/08 07:58:37;;;;;;;9.55;2.25;;;;;;;;;;4920113;29;20038;-77
2022/05/08 08:01:02;;;;;;;11.38;3.13;;;;;;;;;;4937343;29;20036;-79
2022/05/08 08:03:30;;;;;;;13.77;3.20;;;;;;;;;;4951706;29;20043;-80
2022/05/08 08:05:57;;;;;;;9.95;3.22;;;;;;;;;;4935618;29;20063;-83
2022/05/08 08:08:23;;;;;;;11.18;2.90;;;;;;;;;;4937249;29;20035;-81
2022/05/08 08:10:52;;;;;;;7.55;2.55;;;;;;;;;;4921245;29;20431;-81
2022/05/08 08:13:18;;;;;;;8.98;2.95;;;;;;;;;;4937047;29;20347;-80
2022/05/08 08:15:45;;;;;;;14.07;2.80;;;;;;;;;;4936858;29;20039;-81
2022/05/08 08:18:11;;;;;;;8.43;2.55;;;;;;;;;;4935632;29;20071;-81
2022/05/08 08:20:37;;;;;;;9.13;2.55;;;;;;;;;;4935643;29;20042;-81
2022/05/08 08:23:03;;;;;;;9.48;2.38;;;;;;;;;;4935631;29;20036;-80
2022/05/08 08:25:29;;;;;;;9.82;2.20;;;;;;;;;;4936311;29;20028;-80
2022/05/08 08:27:55;;;;;;;13.13;2.67;;;;;;;;;;4935732;29;20027;-78
2022/05/08 08:30:21;;;;;;;8.95;2.72;;;;;;;;;;4935574;29;20027;-80
2022/05/08 08:32:47;;;;;;;7.60;2.13;;;;;;;;;;4935436;29;20123;-77
2022/05/08 08:35:12;;;;;;;4.05;2.03;;;;;;;;;;4919733;29;20482;-79
2022/05/08 08:37:38;;;;;;;8.07;2.40;;;;;;;;;;4918848;29;20090;-79
2022/05/08 08:40:05;;;;;;;7.43;2.35;;;;;;;;;;4934858;29;20035;-81
2022/05/08 08:42:31;;;;;;;7.70;2.50;;;;;;;;;;4935243;29;20031;-78
2022/05/08 08:48:06;;;;;;;11.65;2.40;;;;;;;;;;4935492;29;20470;-82
2022/05/08 08:50:32;;;;;;;8.90;2.35;;;;;;;;;;4935199;29;20126;-81
2022/05/08 08:52:59;;;;;;;8.52;1.98;;;;;;;;;;4950964;29;20111;-83
2022/05/08 08:55:25;;;;;;;7.18;2.20;;;;;;;;;;4935644;29;20367;-82
2022/05/08 08:58:06;;;;;;;8.07;2.17;;;;;;;;;;4919685;29;20052;-82
2022/05/08 09:00:32;;;;;;;6.63;2.38;;;;;;;;;;4936137;29;20131;-79
2022/05/08 09:02:58;;;;;;;5.90;1.80;;;;;;;;;;4936490;29;20028;-81
2022/05/08 09:05:26;;;;;;;6.28;1.98;;;;;;;;;;4939101;29;20548;-81
2022/05/08 09:07:53;;;;;;;7.95;2.33;;;;;;;;;;4938801;29;20031;-81
2022/05/08 09:10:20;;;;;;;7.72;2.15;;;;;;;;;;4936809;29;20019;-80
2022/05/08 09:12:52;;;;;;;8.77;2.47;;;;;;;;;;4950552;29;20024;-82
2022/05/08 09:15:21;;;;;;;14.23;2.85;;;;;;;;;;4936116;29;20119;-81
2022/05/08 09:17:48;;;;;;;10.95;2.45;;;;;;;;;;4936848;29;20107;-80
2022/05/08 09:20:33;;;;;;;17.08;3.35;;;;;;;;;;4934822;29;20090;-81
2022/05/08 09:23:17;;;;;;;6.43;2.13;;;;;;;;;;4935831;29;20027;-81
2022/05/08 09:25:59;;;;;;;6.18;2.15;;;;;;;;;;4950977;29;20032;-82
2022/05/08 09:28:31;;;;;;;5.20;1.80;;;;;;;;;;4935708;29;20036;-82
2022/05/08 09:31:11;;;;;;;6.95;1.88;;;;;;;;;;4951963;29;20023;-81
2022/05/08 09:33:37;;;;;;;12.50;2.50;;;;;;;;;;4935674;29;20039;-81
2022/05/08 09:36:22;;;;;;;8.65;2.20;;;;;;;;;;4936607;29;20035;-82
2022/05/08 09:38:54;;;;;;;5.38;1.67;;;;;;;;;;4936643;29;20027;-81
2022/05/08 09:41:22;;;;;;;6.18;1.73;;;;;;;;;;4937689;29;20107;-81
2022/05/08 09:43:53;;;;;;;8.02;1.85;;;;;;;;;;4939800;29;20077;-82
2022/05/08 09:46:20;;;;;;;7.07;1.90;;;;;;;;;;4938704;29;20043;-83
2022/05/08 09:48:45;;;;;;;7.57;2.33;;;;;;;;;;4939374;29;20031;-82
2022/05/08 09:51:12;;;;;;;4.40;1.58;;;;;;;;;;4940653;29;20063;-81
2022/05/08 09:53:39;;;;;;;5.25;1.80;;;;;;;;;;4944452;29;20398;-81
2022/05/08 09:56:09;;;;;;;3.47;1.60;;;;;;;;;;4952498;29;20101;-81
2022/05/08 09:58:35;;;;;;;4.57;1.60;;;;;;;;;;4951978;29;20036;-81
2022/05/08 10:01:01;;;;;;;3.50;1.33;;;;;;;;;;4935521;29;20111;-83
2022/05/08 10:03:28;;;;;;;2.72;1.50;;;;;;;;;;4920840;29;20031;-81
2022/05/08 10:05:55;;;;;;;7.03;1.48;;;;;;;;;;4951053;29;20062;-79
2022/05/08 10:08:29;;;;;;;4.15;1.63;;;;;;;;;;4936492;29;20371;-81
2022/05/08 10:14:01;;;;;;;2.42;1.15;;;;;;;;;;4934957;29;20091;-80
2022/05/08 10:17:04;;;;;;;8.15;1.50;;;;;;;;;;4936259;29;20463;-79
2022/05/08 10:19:29;;;;;;;5.57;1.67;;;;;;;;;;4952435;29;20115;-79
2022/05/08 10:22:09;;;;;;;5.70;1.88;;;;;;;;;;4937846;29;20102;-79
2022/05/08 10:24:54;;;;;;;5.05;1.95;;;;;;;;;;4952037;29;20024;-80
2022/05/08 10:27:28;;;;;;;5.93;1.52;;;;;;;;;;4922029;29;20024;-80
2022/05/08 10:29:53;;;;;;;2.28;1.40;;;;;;;;;;4937667;29;20032;-80
2022/05/08 10:32:28;;;;;;;6.10;1.48;;;;;;;;;;4937749;29;20020;-80
2022/05/08 10:35:14;;;;;;;5.35;1.50;;;;;;;;;;4951804;29;20498;-79
2022/05/08 10:37:46;;;;;;;6.38;2.17;;;;;;;;;;4934827;29;20522;-79
2022/05/08 10:40:23;;;;;;;4.40;1.55;;;;;;;;;;4903510;29;20036;-79
2022/05/08 10:43:07;;;;;;;3.78;1.58;;;;;;;;;;4937072;29;20032;-79
2022/05/08 10:45:33;;;;;;;3.35;1.23;;;;;;;;;;4950218;29;20042;-81
2022/05/08 10:48:01;;;;;;;3.72;1.30;;;;;;;;;;4936362;29;20040;-79
2022/05/08 10:50:26;;;;;;;4.13;1.70;;;;;;;;;;4950375;29;20447;-80
2022/05/08 10:52:52;;;;;;;4.20;1.40;;;;;;;;;;4935226;29;20106;-80
2022/05/08 10:55:18;;;;;;;3.50;1.42;;;;;;;;;;4917937;29;20395;-80
2022/05/08 10:57:45;;;;;;;3.40;1.35;;;;;;;;;;4934119;29;20391;-82
2022/05/08 11:00:21;;;;;;;5.22;1.65;;;;;;;;;;4917923;29;20083;-81
2022/05/08 11:02:56;;;;;;;7.45;1.73;;;;;;;;;;4936372;29;20032;-80
2022/05/08 11:05:28;;;;;;;5.15;1.80;;;;;;;;;;4937433;29;20052;-84
2022/05/08 11:08:29;;;;;;;11.35;2.90;;;;;;;;;;4936759;29;20090;-79
2022/05/08 11:10:59;;;;;;;8.13;2.40;;;;;;;;;;4936773;29;20035;-80
2022/05/08 11:13:26;;;;;;;6.07;2.10;;;;;;;;;;4937511;29;20506;-80
2022/05/08 11:15:52;;;;;;;7.10;2.40;;;;;;;;;;4936825;29;20055;-81
2022/05/08 11:18:20;;;;;;;8.18;2.60;;;;;;;;;;4936674;29;20055;-81
2022/05/08 11:21:00;;;;;;;9.02;2.63;;;;;;;;;;4936965;29;20035;-79
2022/05/08 11:23:29;;;;;;;7.00;2.08;;;;;;;;;;4921954;29;20038;-80
2022/05/08 11:25:56;;;;;;;2.97;1.75;;;;;;;;;;4952397;29;20478;-80
2022/05/08 11:28:23;;;;;;;5.45;2.08;;;;;;;;;;4936721;29;20119;-80
2022/05/08 11:30:53;;;;;;;4.57;1.38;;;;;;;;;;4938887;29;20023;-81
2022/05/08 11:36:22;;;;;;;4.20;1.73;;;;;;;;;;4937169;29;20111;-81
2022/05/08 11:38:53;;;;;;;2.72;1.27;;;;;;;;;;4936264;29;20020;-80
2022/05/08 11:41:21;;;;;;;3.47;1.40;;;;;;;;;;4952130;29;20395;-82
2022/05/08 11:43:50;;;;;;;2.50;1.33;;;;;;;;;;4936222;29;20035;-82
2022/05/08 11:46:45;;;;;;;4.53;1.40;;;;;;;;;;4936618;29;20042;-82
2022/05/08 11:49:21;;;;;;;4.20;1.52;;;;;;;;;;4931434;29;20126;-82
2022/05/08 11:52:09;;;;;;;2.30;1.20;;;;;;;;;;4937560;29;20023;-81
2022/05/08 11:54:40;;;;;;;4.68;1.30;;;;;;;;;;4952654;29;20023;-81
2022/05/08 11:57:18;;;;;;;2.33;1.80;;;;;;;;;;4936508;29;20035;-82
2022/05/08 11:59:49;;;;;;;3.90;1.10;;;;;;;;;;4952652;29;20391;-81
2022/05/08 12:02:16;;;;;;;1.27;1.17;;;;;;;;;;4952072;29;20057;-81
2022/05/08 12:04:51;;;;;;;2.03;1.27;;;;;;;;;;4935875;29;20335;-78
2022/05/08 12:07:17;;;;;;;3.22;1.40;;;;;;;;;;4935927;29;20043;-82
2022/05/08 12:09:48;;;;;;;3.40;1.38;;;;;;;;;;4936921;29;20092;-81
2022/05/08 12:12:27;;;;;;;4.03;1.42;;;;;;;;;;4936597;29;20063;-80
2022/05/08 12:14:54;;;;;;;3.17;1.35;;;;;;;;;;4950992;29;20387;-81
2022/05/08 12:17:19;;;;;;;2.67;1.40;;;;;;;;;;4937317;29;20027;-81
2022/05/08 12:19:56;;;;;;;1.77;1.15;;;;;;;;;;4951398;29;20040;-81
2022/05/08 12:22:26;;;;;;;1.90;1.10;;;;;;;;;;4904393;29;20094;-81
2022/05/08 12:24:52;;;;;;;3.38;1.13;;;;;;;;;;4904495;29;20039;-81
2022/05/08 12:27:18;;;;;;;7.18;1.35;;;;;;;;;;4950899;29;20035;-81
2022/05/08 12:29:45;;;;;;;3.13;1.25;;;;;;;;;;4935387;29;20120;-81
2022/05/08 12:32:10;;;;;;;3.50;1.60;;;;;;;;;;4935257;29;20028;-81
2022/05/08 12:34:37;;;;;;;4.13;1.88;;;;;;;;;;4936483;29;20410;-81
2022/05/08 12:37:03;;;;;;;2.38;1.42;;;;;;;;;;4936491;29;20320;-81
2022/05/08 12:39:30;;;;;;;1.60;1.00;;;;;;;;;;4919194;29;20039;-81
2022/05/08 12:41:56;;;;;;;10.48;1.40;;;;;;;;;;4919339;29;20028;-82
2022/05/08 12:44:21;;;;;;;3.05;1.35;;;;;;;;;;4936549;29;20031;-81
2022/05/08 12:46:48;;;;;;;1.23;1.10;;;;;;;;;;4919311;29;20443;-81
2022/05/08 12:49:15;;;;;;;2.28;1.30;;;;;;;;;;4951068;29;20175;-80
2022/05/08 12:51:42;;;;;;;6.95;1.52;;;;;;;;;;4935062;29;20051;-81
2022/05/08 12:54:08;;;;;;;4.20;1.20;;;;;;;;;;4920055;29;20447;-81
2022/05/08 12:56:33;;;;;;;1.42;0.90;;;;;;;;;;4934864;29;20050;-81
2022/05/08 13:01:44;;;;;;;1.90;1.08;;;;;;;;;;4921602;29;20417;-82
2022/05/08 13:04:10;;;;;;;2.13;1.30;;;;;;;;;;4934533;29;20028;-81
2022/05/08 13:06:36;;;;;;;2.38;1.42;;;;;;;;;;4934317;29;20096;-82
2022/05/08 13:09:03;;;;;;;2.72;1.52;;;;;;;;;;4950468;29;20055;-82
2022/05/08 13:11:30;;;;;;;3.83;1.42;;;;;;;;;;4934403;29;20387;-82
2022/05/08 13:13:55;;;;;;;2.75;1.20;;;;;;;;;;4918667;29;20038;-82
2022/05/08 13:16:22;;;;;;;2.13;1.42;;;;;;;;;;4934320;29;20119;-83
2022/05/08 13:18:48;;;;;;;2.17;1.20;;;;;;;;;;4934077;29;20028;-83
2022/05/08 13:21:13;;;;;;;3.20;1.05;;;;;;;;;;4949893;29;20031;-82
2022/05/08 13:23:39;;;;;;;2.35;1.30;;;;;;;;;;4949443;29;20055;-82
2022/05/08 13:26:05;;;;;;;2.13;1.23;;;;;;;;;;4935285;29;20115;-81
2022/05/08 13:28:32;;;;;;;2.95;1.30;;;;;;;;;;4918422;29;20158;-81
2022/05/08 13:30:59;;;;;;;3.70;1.33;;;;;;;;;;4934103;29;20028;-81
2022/05/08 13:33:24;;;;;;;2.10;1.30;;;;;;;;;;4934160;29;20102;-81
2022/05/08 13:35:51;;;;;;;5.05;1.45;;;;;;;;;;4934119;29;20486;-81
2022/05/08 13:38:18;;;;;;;1.27;1.10;;;;;;;;;;4918430;29;20043;-81
2022/05/08 13:40:44;;;;;;;1.48;1.08;;;;;;;;;;4918463;29;20028;-82
2022/05/08 13:43:09;;;;;;;2.13;1.08;;;;;;;;;;4918334;29;20040;-81
2022/05/08 13:45:35;;;;;;;2.50;1.35;;;;;;;;;;4918298;29;20126;-82
2022/05/08 13:48:00;;;;;;;1.92;1.25;;;;;;;;;;4934628;29;20039;-82
2022/05/08 13:50:26;;;;;;;4.68;1.45;;;;;;;;;;4902618;29;20031;-81
2022/05/08 13:52:52;;;;;;;2.85;1.15;;;;;;;;;;4918006;29;20080;-81
2022/05/08 13:55:17;;;;;;;1.65;1.10;;;;;;;;;;4935007;29;20566;-80
2022/05/08 13:57:43;;;;;;;1.42;1.00;;;;;;;;;;4902390;29;20110;-81
2022/05/08 14:00:16;;;;;;;3.60;1.45;;;;;;;;;;4933846;29;20458;-81
2022/05/08 14:02:42;;;;;;;2.92;1.55;;;;;;;;;;4919141;29;20395;-82
2022/05/08 14:05:09;;;;;;;2.83;1.10;;;;;;;;;;4903308;29;20071;-84
2022/05/08 14:07:37;;;;;;;2.13;1.20;;;;;;;;;;4936117;29;20036;-83
2022/05/08 14:10:07;;;;;;;3.58;1.50;;;;;;;;;;4919639;29;20024;-83
2022/05/08 14:12:33;;;;;;;1.95;1.00;;;;;;;;;;4933898;29;20050;-81
2022/05/08 14:14:58;;;;;;;4.43;1.20;;;;;;;;;;4933939;29;20074;-84
2022/05/08 14:17:24;;;;;;;2.13;1.35;;;;;;;;;;4933678;29;20139;-83
2022/05/08 14:19:49;;;;;;;5.55;1.88;;;;;;;;;;4918239;29;20032;-83
2022/05/08 14:22:15;;;;;;;2.58;1.30;;;;;;;;;;4933814;29;20031;-83
2022/05/08 14:24:40;;;;;;;5.57;1.50;;;;;;;;;;4933785;29;20082;-84
2022/05/08 14:27:08;;;;;;;2.35;1.20;;;;;;;;;;4918334;29;20135;-83
2022/05/08 14:29:36;;;;;;;8.55;1.80;;;;;;;;;;4933782;29;20261;-84
2022/05/08 14:37:30;;;;;;;2.75;1.27;;;;;;;;;;4950922;29;19921;-83
2022/05/08 14:39:56;;;;;;;2.42;1.50;;;;;;;;;;4937827;29;20466;-85
2022/05/08 14:42:23;;;;;;;9.27;1.40;;;;;;;;;;4921753;29;20059;-83
2022/05/08 14:44:49;;;;;;;3.20;1.40;;;;;;;;;;4939109;29;20093;-82
2022/05/08 14:47:22;;;;;;;3.22;1.50;;;;;;;;;;4953661;29;20470;-83
2022/05/08 14:49:48;;;;;;;2.95;1.50;;;;;;;;;;4953443;29;20047;-83
2022/05/08 14:52:13;;;;;;;2.30;1.23;;;;;;;;;;4921252;29;20039;-83
2022/05/08 14:54:39;;;;;;;2.13;1.20;;;;;;;;;;4937275;29;20027;-83
2022/05/08 14:57:07;;;;;;;3.67;1.20;;;;;;;;;;4937115;29;20043;-83
2022/05/08 14:59:32;;;;;;;5.20;1.45;;;;;;;;;;4921817;29;20031;-83
2022/05/08 15:01:57;;;;;;;3.58;2.17;;;;;;;;;;4938499;29;20033;-82
2022/05/08 15:04:25;;;;;;;3.45;1.40;;;;;;;;;;4938699;29;20119;-83
2022/05/08 15:06:51;;;;;;;2.28;1.27;;;;;;;;;;4937256;29;20502;-82
2022/05/08 15:09:16;;;;;;;3.83;1.40;;;;;;;;;;4953099;29;20130;-83
2022/05/08 15:11:43;;;;;;;3.88;1.55;;;;;;;;;;4937582;29;20032;-83
2022/05/08 15:14:08;;;;;;;3.22;1.15;;;;;;;;;;4922287;29;20035;-83
2022/05/08 15:16:34;;;;;;;3.97;1.17;;;;;;;;;;4955529;29;20071;-83
2022/05/08 15:19:00;;;;;;;3.75;1.30;;;;;;;;;;4940419;29;20391;-86
2022/05/08 15:21:26;;;;;;;3.10;1.13;;;;;;;;;;4941383;29;20525;-87